createdAt,value
2016-12-01T00:00:50.955Z,0
2016-12-01T00:02:01.282Z,0
2016-12-01T00:03:11.604Z,0
2016-12-01T00:04:21.920Z,0
2016-12-01T00:05:31.312Z,0
2016-12-01T00:06:41.009Z,0
2016-12-01T00:07:51.337Z,0
2016-12-01T00:09:01.347Z,0
2016-12-01T00:10:11.695Z,0
2016-12-01T00:11:22.020Z,0
2016-12-01T00:12:32.368Z,0
2016-12-01T00:13:42.702Z,0
2016-12-01T00:14:52.728Z,0
2016-12-01T00:16:02.737Z,0
2016-12-01T00:17:13.059Z,0
2016-12-01T00:18:23.072Z,0
2016-12-01T00:19:33.414Z,0
2016-12-01T00:20:43.737Z,0
2016-12-01T00:21:53.452Z,0
2016-12-01T00:23:03.493Z,0
2016-12-01T00:24:13.200Z,0
2016-12-01T00:25:23.211Z,0
2016-12-01T00:26:33.544Z,0
2016-12-01T00:27:43.877Z,0
2016-12-01T00:28:54.214Z,0
2016-12-01T00:30:04.555Z,0
2016-12-01T00:31:14.890Z,0
2016-12-01T00:32:25.231Z,0
2016-12-01T00:33:35.250Z,0
2016-12-01T00:34:44.944Z,0
2016-12-01T00:35:54.958Z,0
2016-12-01T00:37:04.669Z,0
2016-12-01T00:38:14.707Z,0
2016-12-01T00:39:24.103Z,0
2016-12-01T00:40:34.112Z,0
2016-12-01T00:41:44.431Z,0
2016-12-01T00:42:54.443Z,0
2016-12-01T00:44:04.460Z,0
2016-12-01T00:45:14.792Z,0
2016-12-01T00:46:24.504Z,0
2016-12-01T00:47:34.826Z,0
2016-12-01T00:48:45.164Z,0
2016-12-01T00:49:55.168Z,0
2016-12-01T00:51:05.176Z,0
2016-12-01T00:52:15.505Z,0
2016-12-01T00:53:25.211Z,0
2016-12-01T00:54:35.201Z,0
2016-12-01T00:55:45.213Z,0
2016-12-01T00:56:55.231Z,0
2016-12-01T00:58:05.811Z,0
2016-12-01T00:59:15.823Z,0
2016-12-01T01:00:25.829Z,0
2016-12-01T01:01:35.843Z,0
2016-12-01T01:02:45.844Z,0
2016-12-01T01:03:56.160Z,0
2016-12-01T01:05:05.872Z,0
2016-12-01T01:06:15.589Z,0
2016-12-01T01:07:25.625Z,0
2016-12-01T01:08:35.336Z,0
2016-12-01T01:09:45.675Z,0
2016-12-01T01:10:55.065Z,0
2016-12-01T01:12:04.773Z,0
2016-12-01T01:13:14.469Z,0
2016-12-01T01:14:24.164Z,0
2016-12-01T01:15:34.158Z,0
2016-12-01T01:16:43.893Z,0
2016-12-01T01:17:53.902Z,0
2016-12-01T01:19:04.239Z,0
2016-12-01T01:20:14.570Z,0
2016-12-01T01:21:24.898Z,0
2016-12-01T01:22:35.227Z,0
2016-12-01T01:23:45.591Z,0
2016-12-01T01:24:55.291Z,0
2016-12-01T01:26:05.638Z,0
2016-12-01T01:27:15.966Z,0
2016-12-01T01:28:25.691Z,0
2016-12-01T01:29:36.029Z,0
2016-12-01T01:30:46.081Z,0
2016-12-01T01:31:56.102Z,0
2016-12-01T01:33:06.118Z,0
2016-12-01T01:34:16.440Z,0
2016-12-01T01:35:26.795Z,0
2016-12-01T01:36:36.830Z,0
2016-12-01T01:37:46.850Z,0
2016-12-01T01:38:57.180Z,0
2016-12-01T01:40:07.509Z,0
2016-12-01T01:41:17.518Z,0
2016-12-01T01:42:27.831Z,0
2016-12-01T01:43:38.171Z,0
2016-12-01T01:44:47.853Z,0
2016-12-01T01:45:58.174Z,0
2016-12-01T01:47:08.494Z,0
2016-12-01T01:48:18.833Z,0
2016-12-01T01:49:28.533Z,0
2016-12-01T01:50:38.572Z,0
2016-12-01T01:51:48.898Z,0
2016-12-01T01:52:58.611Z,0
2016-12-01T01:54:08.938Z,0
2016-12-01T01:55:19.256Z,0
2016-12-01T01:56:29.266Z,0
2016-12-01T01:57:39.588Z,0
2016-12-01T01:58:49.950Z,0
2016-12-01T02:00:00.282Z,0
2016-12-01T02:01:10.619Z,0
2016-12-01T02:02:20.930Z,0
2016-12-01T02:03:31.252Z,0
2016-12-01T02:04:41.264Z,0
2016-12-01T02:05:51.630Z,0
2016-12-01T02:07:01.948Z,0
2016-12-01T02:08:12.277Z,0
2016-12-01T02:09:22.604Z,0
2016-12-01T02:10:32.617Z,0
2016-12-01T02:11:42.989Z,0
2016-12-01T02:12:53.008Z,0
2016-12-01T02:14:03.038Z,0
2016-12-01T02:15:13.061Z,0
2016-12-01T02:16:23.381Z,0
2016-12-01T02:17:33.708Z,0
2016-12-01T02:18:43.408Z,0
2016-12-01T02:19:53.772Z,0
2016-12-01T02:21:04.098Z,0
2016-12-01T02:22:14.420Z,0
2016-12-01T02:23:24.447Z,0
2016-12-01T02:24:34.155Z,0
2016-12-01T02:25:44.205Z,0
2016-12-01T02:26:54.212Z,0
2016-12-01T02:28:04.218Z,0
2016-12-01T02:29:14.231Z,0
2016-12-01T02:30:24.557Z,0
2016-12-01T02:31:34.259Z,0
2016-12-01T02:32:44.578Z,0
2016-12-01T02:33:54.895Z,0
2016-12-01T02:35:05.218Z,0
2016-12-01T02:36:14.622Z,0
2016-12-01T02:37:24.958Z,0
2016-12-01T02:38:34.975Z,0
2016-12-01T02:39:44.668Z,0
2016-12-01T02:40:54.695Z,0
2016-12-01T02:42:04.711Z,0
2016-12-01T02:43:15.068Z,0
2016-12-01T02:44:25.395Z,0
2016-12-01T02:45:35.718Z,0
2016-12-01T02:46:45.762Z,0
2016-12-01T02:47:56.102Z,0
2016-12-01T02:49:06.434Z,0
2016-12-01T02:50:16.433Z,0
2016-12-01T02:51:26.757Z,0
2016-12-01T02:52:36.148Z,0
2016-12-01T02:53:46.151Z,0
2016-12-01T02:54:56.483Z,0
2016-12-01T02:56:06.813Z,0
2016-12-01T02:57:16.210Z,0
2016-12-01T02:58:25.906Z,0
2016-12-01T02:59:36.225Z,0
2016-12-01T03:00:46.545Z,0
2016-12-01T03:32:46.296Z,0
2016-12-01T03:33:55.982Z,0
2016-12-01T03:35:06.316Z,0
2016-12-01T03:36:16.637Z,0
2016-12-01T03:37:26.648Z,0
2016-12-01T03:38:36.974Z,0
2016-12-01T03:39:47.301Z,0
2016-12-01T03:40:57.619Z,0
2016-12-01T03:42:07.950Z,0
2016-12-01T03:43:18.269Z,0
2016-12-01T03:44:28.273Z,0
2016-12-01T03:45:38.013Z,0
2016-12-01T03:46:48.327Z,0
2016-12-01T03:47:58.647Z,0
2016-12-01T03:49:08.354Z,0
2016-12-01T03:50:18.064Z,0
2016-12-01T03:51:28.388Z,0
2016-12-01T03:52:38.742Z,0
2016-12-01T03:53:48.435Z,0
2016-12-01T03:54:58.753Z,0
2016-12-01T03:56:09.065Z,0
2016-12-01T03:57:19.071Z,0
2016-12-01T03:58:29.081Z,0
2016-12-01T03:59:39.643Z,0
2016-12-01T04:00:49.990Z,0
2016-12-01T04:02:00.003Z,0
2016-12-01T04:03:10.328Z,0
2016-12-01T04:04:20.649Z,0
2016-12-01T04:05:30.976Z,0
2016-12-01T04:06:40.999Z,0
2016-12-01T04:07:51.325Z,0
2016-12-01T04:09:01.326Z,0
2016-12-01T04:10:11.333Z,0
2016-12-01T04:11:21.340Z,0
2016-12-01T04:12:31.050Z,0
2016-12-01T04:13:41.068Z,0
2016-12-01T04:14:51.405Z,0
2016-12-01T04:16:01.106Z,0
2016-12-01T04:17:11.132Z,0
2016-12-01T04:18:21.458Z,0
2016-12-01T04:19:31.165Z,0
2016-12-01T04:20:41.181Z,0
2016-12-01T04:21:51.510Z,0
2016-12-01T04:23:01.846Z,0
2016-12-01T04:24:11.876Z,0
2016-12-01T04:25:21.583Z,0
2016-12-01T04:26:31.912Z,0
2016-12-01T04:27:41.916Z,0
2016-12-01T04:28:51.925Z,0
2016-12-01T04:30:01.951Z,0
2016-12-01T04:31:12.282Z,0
2016-12-01T04:32:22.298Z,0
2016-12-01T04:33:32.618Z,0
2016-12-01T04:34:42.945Z,0
2016-12-01T04:35:52.637Z,0
2016-12-01T04:37:02.343Z,0
2016-12-01T04:38:12.050Z,0
2016-12-01T04:39:22.079Z,0
2016-12-01T04:40:32.405Z,0
2016-12-01T04:41:42.425Z,0
2016-12-01T04:42:51.816Z,0
2016-12-01T04:44:02.141Z,0
2016-12-01T04:45:12.155Z,0
2016-12-01T04:46:22.487Z,0
2016-12-01T04:47:32.503Z,0
2016-12-01T04:48:42.210Z,0
2016-12-01T04:49:51.911Z,0
2016-12-01T04:51:02.240Z,0
2016-12-01T04:52:12.565Z,0
2016-12-01T04:53:22.931Z,0
2016-12-01T04:54:33.259Z,0
2016-12-01T04:55:42.969Z,0
2016-12-01T04:56:52.977Z,0
2016-12-01T04:58:03.223Z,0
2016-12-01T04:59:13.238Z,0
2016-12-01T05:00:23.561Z,0
2016-12-01T05:01:33.913Z,0
2016-12-01T05:02:43.608Z,0
2016-12-01T05:03:53.926Z,0
2016-12-01T05:05:04.263Z,0
2016-12-01T05:06:14.295Z,0
2016-12-01T05:07:24.630Z,0
2016-12-01T05:08:34.948Z,0
2016-12-01T05:09:45.290Z,0
2016-12-01T05:10:55.299Z,0
2016-12-01T05:12:05.320Z,0
2016-12-01T05:13:15.655Z,0
2016-12-01T05:14:25.061Z,0
2016-12-01T05:15:35.396Z,0
2016-12-01T05:16:45.713Z,0
2016-12-01T05:17:55.732Z,0
2016-12-01T05:19:06.056Z,0
2016-12-01T05:20:16.375Z,0
2016-12-01T05:21:26.705Z,0
2016-12-01T05:22:36.758Z,0
2016-12-01T05:23:46.768Z,0
2016-12-01T05:24:56.780Z,0
2016-12-01T05:26:07.103Z,0
2016-12-01T05:27:17.114Z,0
2016-12-01T05:28:27.436Z,0
2016-12-01T05:29:37.767Z,0
2016-12-01T05:30:47.784Z,0
2016-12-01T05:31:57.802Z,0
2016-12-01T05:33:07.501Z,0
2016-12-01T05:34:17.515Z,0
2016-12-01T05:35:27.856Z,0
2016-12-01T05:36:38.439Z,0
2016-12-01T05:37:48.443Z,0
2016-12-01T05:38:58.496Z,0
2016-12-01T05:40:08.824Z,0
2016-12-01T05:41:18.834Z,0
2016-12-01T05:42:28.840Z,0
2016-12-01T05:43:38.852Z,0
2016-12-01T05:44:49.188Z,0
2016-12-01T05:45:59.534Z,0
2016-12-01T05:47:10.086Z,0
2016-12-01T05:48:20.107Z,0
2016-12-01T05:49:30.111Z,0
2016-12-01T05:50:40.433Z,0
2016-12-01T05:51:49.825Z,0
2016-12-01T05:52:59.839Z,0
2016-12-01T05:54:09.555Z,0
2016-12-01T05:55:19.887Z,0
2016-12-01T05:56:29.940Z,0
2016-12-01T05:57:39.957Z,0
2016-12-01T05:58:49.983Z,4
2016-12-01T06:00:00.031Z,4
2016-12-01T06:01:10.055Z,4
2016-12-01T06:02:20.083Z,4
2016-12-01T06:03:30.444Z,0
2016-12-01T06:04:40.777Z,4
2016-12-01T06:05:50.804Z,4
2016-12-01T06:07:01.125Z,4
2016-12-01T06:08:10.830Z,4
2016-12-01T06:09:21.157Z,4
2016-12-01T06:10:31.495Z,8
2016-12-01T06:11:41.191Z,8
2016-12-01T06:12:51.217Z,8
2016-12-01T06:14:01.224Z,12
2016-12-01T06:15:10.948Z,12
2016-12-01T06:16:21.001Z,16
2016-12-01T06:17:30.706Z,16
2016-12-01T06:18:41.030Z,20
2016-12-01T06:19:51.037Z,20
2016-12-01T06:21:00.744Z,20
2016-12-01T06:22:11.067Z,20
2016-12-01T06:23:21.084Z,24
2016-12-01T06:24:31.391Z,24
2016-12-01T06:25:41.716Z,28
2016-12-01T06:26:51.419Z,32
2016-12-01T06:28:01.799Z,32
2016-12-01T06:29:11.805Z,32
2016-12-01T06:30:22.138Z,36
2016-12-01T06:31:32.178Z,40
2016-12-01T06:32:42.199Z,44
2016-12-01T06:33:51.324Z,48
2016-12-01T06:35:01.070Z,48
2016-12-01T06:36:11.100Z,52
2016-12-01T06:37:21.134Z,60
2016-12-01T06:38:31.162Z,64
2016-12-01T06:39:41.182Z,72
2016-12-01T06:40:50.883Z,80
2016-12-01T06:42:01.203Z,88
2016-12-01T06:43:11.221Z,92
2016-12-01T06:44:21.547Z,96
2016-12-01T06:45:31.882Z,108
2016-12-01T06:46:41.277Z,112
2016-12-01T06:47:51.311Z,120
2016-12-01T06:49:01.329Z,128
2016-12-01T06:50:11.036Z,144
2016-12-01T06:51:20.732Z,156
2016-12-01T06:52:31.064Z,168
2016-12-01T06:53:41.398Z,180
2016-12-01T06:54:51.130Z,192
2016-12-01T06:56:01.158Z,200
2016-12-01T06:57:11.166Z,212
2016-12-01T06:58:21.494Z,220
2016-12-01T06:59:31.810Z,228
2016-12-01T07:00:41.830Z,232
2016-12-01T07:01:51.856Z,232
2016-12-01T07:03:02.185Z,240
2016-12-01T07:04:12.216Z,252
2016-12-01T07:05:22.550Z,268
2016-12-01T07:06:32.558Z,284
2016-12-01T07:07:42.905Z,296
2016-12-01T07:08:53.230Z,308
2016-12-01T07:10:03.241Z,328
2016-12-01T07:11:13.586Z,356
2016-12-01T07:12:23.288Z,384
2016-12-01T07:13:33.624Z,408
2016-12-01T07:14:43.948Z,420
2016-12-01T07:15:54.278Z,428
2016-12-01T07:17:04.289Z,448
2016-12-01T07:18:14.306Z,476
2016-12-01T07:19:24.328Z,520
2016-12-01T07:20:34.679Z,556
2016-12-01T07:21:44.391Z,584
2016-12-01T07:22:54.130Z,596
2016-12-01T07:24:04.149Z,608
2016-12-01T07:25:14.179Z,612
2016-12-01T07:26:24.192Z,624
2016-12-01T07:27:34.520Z,640
2016-12-01T07:28:44.536Z,660
2016-12-01T07:29:54.252Z,680
2016-12-01T07:31:04.264Z,704
2016-12-01T07:32:13.974Z,732
2016-12-01T07:33:24.289Z,752
2016-12-01T07:34:34.320Z,768
2016-12-01T07:35:44.648Z,776
2016-12-01T07:36:54.723Z,792
2016-12-01T07:38:05.061Z,800
2016-12-01T07:39:15.417Z,808
2016-12-01T07:40:25.753Z,840
2016-12-01T07:41:35.795Z,876
2016-12-01T07:42:45.802Z,920
2016-12-01T07:43:56.133Z,968
2016-12-01T07:45:05.839Z,1000
2016-12-01T07:46:15.871Z,1004
2016-12-01T07:47:26.194Z,988
2016-12-01T07:48:35.895Z,1004
2016-12-01T07:49:46.233Z,1032
2016-12-01T07:50:56.559Z,1068
2016-12-01T07:52:06.283Z,1096
2016-12-01T07:53:16.642Z,1108
2016-12-01T07:54:26.645Z,1144
2016-12-01T07:55:36.979Z,1216
2016-12-01T07:56:47.342Z,1292
2016-12-01T07:57:57.683Z,1352
2016-12-01T07:59:08.014Z,1384
2016-12-01T08:00:17.716Z,1368
2016-12-01T08:01:27.729Z,1296
2016-12-01T08:02:37.751Z,1244
2016-12-01T08:03:48.072Z,1216
2016-12-01T08:04:58.403Z,1188
2016-12-01T08:06:08.731Z,1144
2016-12-01T08:07:18.746Z,1096
2016-12-01T08:08:28.753Z,1092
2016-12-01T08:09:38.815Z,1120
2016-12-01T08:10:48.822Z,1148
2016-12-01T08:11:59.148Z,1200
2016-12-01T08:13:09.508Z,1252
2016-12-01T08:14:19.547Z,1280
2016-12-01T08:15:29.565Z,1324
2016-12-01T08:16:39.910Z,1424
2016-12-01T08:17:49.936Z,1556
2016-12-01T08:18:59.642Z,1668
2016-12-01T08:20:09.341Z,1724
2016-12-01T08:21:19.659Z,1696
2016-12-01T08:22:29.370Z,1644
2016-12-01T08:23:39.722Z,1644
2016-12-01T08:24:50.043Z,1712
2016-12-01T08:26:00.382Z,1888
2016-12-01T08:27:10.709Z,2056
2016-12-01T08:28:20.725Z,2144
2016-12-01T08:29:30.747Z,2144
2016-12-01T08:30:41.084Z,2084
2016-12-01T08:31:51.110Z,2048
2016-12-01T08:33:01.443Z,2084
2016-12-01T08:34:11.484Z,2136
2016-12-01T08:35:21.510Z,2136
2016-12-01T08:36:31.851Z,2092
2016-12-01T08:37:42.180Z,2088
2016-12-01T08:38:51.880Z,2108
2016-12-01T08:40:01.897Z,2152
2016-12-01T08:41:11.934Z,2208
2016-12-01T08:42:21.965Z,2264
2016-12-01T08:43:32.299Z,2352
2016-12-01T08:44:42.315Z,2476
2016-12-01T08:45:52.667Z,2628
2016-12-01T08:47:02.687Z,2788
2016-12-01T08:48:12.699Z,2968
2016-12-01T08:49:22.704Z,3136
2016-12-01T08:50:33.047Z,3268
2016-12-01T08:51:43.383Z,3316
2016-12-01T08:52:53.090Z,3276
2016-12-01T08:54:02.786Z,3188
2016-12-01T08:55:12.816Z,3076
2016-12-01T08:56:22.831Z,2968
2016-12-01T08:57:33.177Z,2888
2016-12-01T08:58:43.179Z,2832
2016-12-01T08:59:52.890Z,2824
2016-12-01T09:01:02.917Z,2840
2016-12-01T09:02:12.938Z,2892
2016-12-01T09:03:22.946Z,2968
2016-12-01T09:04:33.277Z,2996
2016-12-01T09:05:43.003Z,2972
2016-12-01T09:06:53.015Z,2944
2016-12-01T09:08:02.728Z,2920
2016-12-01T09:09:12.424Z,2876
2016-12-01T09:10:22.437Z,2828
2016-12-01T09:11:31.533Z,2776
2016-12-01T09:12:41.874Z,2732
2016-12-01T09:13:52.196Z,2672
2016-12-01T09:15:02.214Z,2584
2016-12-01T09:16:11.930Z,2512
2016-12-01T09:17:21.943Z,2484
2016-12-01T09:18:31.677Z,2504
2016-12-01T09:19:41.690Z,2532
2016-12-01T09:20:51.396Z,2556
2016-12-01T09:22:01.123Z,2588
2016-12-01T09:23:11.145Z,2600
2016-12-01T09:24:20.569Z,2588
2016-12-01T09:25:30.289Z,2548
2016-12-01T09:26:39.990Z,2480
2016-12-01T09:27:50.321Z,2400
2016-12-01T09:29:00.377Z,2348
2016-12-01T09:30:10.457Z,2332
2016-12-01T09:31:23.970Z,2368
2016-12-01T09:32:35.974Z,2368
2016-12-01T09:33:53.255Z,2428
2016-12-01T09:35:06.336Z,2504
2016-12-01T09:36:17.055Z,2552
2016-12-01T09:37:27.207Z,2580
2016-12-01T09:38:36.907Z,2612
2016-12-01T09:39:47.577Z,2600
2016-12-01T09:40:58.003Z,2560
2016-12-01T09:42:08.097Z,2508
2016-12-01T09:43:18.579Z,2448
2016-12-01T09:44:28.653Z,2380
2016-12-01T09:45:38.729Z,2328
2016-12-01T09:46:49.066Z,2304
2016-12-01T09:47:58.475Z,2312
2016-12-01T09:49:09.094Z,2344
2016-12-01T09:50:19.128Z,2360
2016-12-01T09:51:29.157Z,2356
2016-12-01T09:52:39.677Z,2360
2016-12-01T09:53:49.787Z,2404
2016-12-01T09:55:00.217Z,2488
2016-12-01T09:56:10.599Z,2564
2016-12-01T09:57:20.721Z,2596
2016-12-01T09:58:30.748Z,2592
2016-12-01T09:59:40.509Z,2584
2016-12-01T10:00:50.555Z,2548
2016-12-01T10:02:00.614Z,2476
2016-12-01T10:03:11.034Z,2364
2016-12-01T10:04:21.487Z,2264
2016-12-01T10:05:31.867Z,2208
2016-12-01T10:06:42.266Z,2240
2016-12-01T10:07:52.310Z,2344
2016-12-01T10:09:02.160Z,2464
2016-12-01T10:10:12.534Z,2584
2016-12-01T10:11:22.870Z,2620
2016-12-01T10:12:33.238Z,2536
2016-12-01T10:13:43.294Z,2400
2016-12-01T10:14:53.636Z,2276
2016-12-01T10:16:04.063Z,2172
2016-12-01T10:17:13.527Z,2080
2016-12-01T10:18:23.556Z,1976
2016-12-01T10:19:33.950Z,1920
2016-12-01T10:20:44.011Z,1904
2016-12-01T10:21:54.073Z,1928
2016-12-01T10:23:04.404Z,1988
2016-12-01T10:24:14.739Z,2072
2016-12-01T10:25:24.450Z,2116
2016-12-01T10:26:34.796Z,2096
2016-12-01T10:27:45.119Z,2052
2016-12-01T10:28:55.437Z,2016
2016-12-01T10:30:05.170Z,1988
2016-12-01T10:31:15.511Z,1932
2016-12-01T10:32:25.578Z,1872
2016-12-01T10:33:35.603Z,1820
2016-12-01T10:34:45.621Z,1788
2016-12-01T10:35:55.957Z,1764
2016-12-01T10:37:05.981Z,1740
2016-12-01T10:38:16.345Z,1736
2016-12-01T10:39:26.363Z,1772
2016-12-01T10:40:36.402Z,1816
2016-12-01T10:41:46.422Z,1820
2016-12-01T10:42:56.773Z,1772
2016-12-01T10:44:07.094Z,1708
2016-12-01T10:45:16.804Z,1692
2016-12-01T10:46:27.128Z,1696
2016-12-01T10:47:37.154Z,1680
2016-12-01T10:48:47.176Z,1664
2016-12-01T10:49:57.208Z,1644
2016-12-01T10:51:07.540Z,1624
2016-12-01T10:52:17.870Z,1612
2016-12-01T10:53:27.887Z,1604
2016-12-01T10:54:38.219Z,1632
2016-12-01T10:55:48.561Z,1672
2016-12-01T10:56:58.898Z,1684
2016-12-01T10:58:09.251Z,1672
2016-12-01T10:59:19.573Z,1644
2016-12-01T11:00:29.598Z,1608
2016-12-01T11:01:39.665Z,1592
2016-12-01T11:02:49.378Z,1628
2016-12-01T11:03:59.090Z,1724
2016-12-01T11:05:09.425Z,1800
2016-12-01T11:06:19.125Z,1832
2016-12-01T11:07:29.455Z,1828
2016-12-01T11:08:39.797Z,1748
2016-12-01T11:09:50.131Z,1640
2016-12-01T11:11:00.457Z,1584
2016-12-01T11:12:10.835Z,1580
2016-12-01T11:13:20.238Z,1580
2016-12-01T11:14:30.559Z,1584
2016-12-01T11:15:40.895Z,1588
2016-12-01T11:16:51.238Z,1612
2016-12-01T11:18:01.582Z,1612
2016-12-01T11:19:11.872Z,1608
2016-12-01T11:20:21.917Z,1620
2016-12-01T11:21:31.628Z,1628
2016-12-01T11:22:41.643Z,1620
2016-12-01T11:23:51.969Z,1624
2016-12-01T11:25:01.999Z,1624
2016-12-01T11:26:12.048Z,1572
2016-12-01T11:27:22.057Z,1488
2016-12-01T11:28:31.768Z,1404
2016-12-01T11:29:41.840Z,1336
2016-12-01T11:30:51.247Z,1292
2016-12-01T11:32:01.591Z,1300
2016-12-01T11:33:11.934Z,1328
2016-12-01T11:34:22.252Z,1352
2016-12-01T11:35:32.305Z,1288
2016-12-01T11:36:42.011Z,1192
2016-12-01T11:37:52.343Z,1164
2016-12-01T11:39:02.359Z,1160
2016-12-01T11:40:12.626Z,1152
2016-12-01T11:41:22.948Z,1148
2016-12-01T11:42:32.956Z,1128
2016-12-01T11:43:42.966Z,1072
2016-12-01T11:44:53.310Z,1000
2016-12-01T11:46:03.350Z,932
2016-12-01T11:47:12.756Z,940
2016-12-01T11:48:22.782Z,964
2016-12-01T11:49:33.101Z,936
2016-12-01T11:50:43.146Z,948
2016-12-01T11:51:53.544Z,1028
2016-12-01T11:53:04.035Z,1052
2016-12-01T11:54:14.397Z,1076
2016-12-01T11:55:24.669Z,1144
2016-12-01T11:56:35.006Z,1280
2016-12-01T11:57:45.382Z,1388
2016-12-01T11:58:55.114Z,1416
2016-12-01T12:00:05.146Z,1380
2016-12-01T12:01:15.498Z,1364
2016-12-01T12:02:25.525Z,1368
2016-12-01T12:03:35.557Z,1392
2016-12-01T12:04:45.576Z,1448
2016-12-01T12:05:55.931Z,1508
2016-12-01T12:07:05.952Z,1572
2016-12-01T12:08:16.282Z,1628
2016-12-01T12:09:25.996Z,1632
2016-12-01T12:10:36.331Z,1580
2016-12-01T12:11:46.040Z,1548
2016-12-01T12:12:56.365Z,1524
2016-12-01T12:14:06.706Z,1488
2016-12-01T12:15:16.725Z,1432
2016-12-01T12:16:27.051Z,1404
2016-12-01T12:17:37.087Z,1440
2016-12-01T12:18:47.106Z,1468
2016-12-01T12:19:56.816Z,1412
2016-12-01T12:21:06.542Z,1380
2016-12-01T12:22:16.273Z,1368
2016-12-01T12:23:26.611Z,1344
2016-12-01T12:24:36.311Z,1388
2016-12-01T12:25:46.344Z,1424
2016-12-01T12:26:56.681Z,1436
2016-12-01T12:28:06.712Z,1436
2016-12-01T12:29:16.764Z,1400
2016-12-01T12:30:27.102Z,1364
2016-12-01T12:31:37.153Z,1348
2016-12-01T12:32:46.857Z,1308
2016-12-01T12:33:57.212Z,1232
2016-12-01T12:35:07.539Z,1156
2016-12-01T12:36:17.876Z,1128
2016-12-01T12:37:27.901Z,1160
2016-12-01T12:38:38.233Z,1192
2016-12-01T12:39:48.254Z,1172
2016-12-01T12:40:58.284Z,1108
2016-12-01T12:42:08.623Z,1088
2016-12-01T12:43:18.636Z,1132
2016-12-01T12:44:28.362Z,1184
2016-12-01T12:45:38.381Z,1200
2016-12-01T12:46:48.405Z,1204
2016-12-01T12:47:58.774Z,1216
2016-12-01T12:49:08.537Z,1252
2016-12-01T12:50:18.943Z,1240
2016-12-01T12:51:29.315Z,1200
2016-12-01T12:52:39.702Z,1180
2016-12-01T12:53:49.464Z,1156
2016-12-01T12:54:59.850Z,1108
2016-12-01T12:56:10.238Z,1100
2016-12-01T12:57:20.294Z,1112
2016-12-01T12:58:30.674Z,1100
2016-12-01T12:59:40.750Z,1056
2016-12-01T13:00:50.515Z,1016
2016-12-01T13:02:00.944Z,1012
2016-12-01T13:03:11.314Z,1016
2016-12-01T13:04:21.617Z,996
2016-12-01T13:05:31.678Z,936
2016-12-01T13:06:41.096Z,900
2016-12-01T13:07:51.487Z,900
2016-12-01T13:09:01.238Z,900
2016-12-01T13:10:11.302Z,904
2016-12-01T13:11:21.662Z,900
2016-12-01T13:12:31.705Z,876
2016-12-01T13:13:41.735Z,844
2016-12-01T13:14:51.481Z,820
2016-12-01T13:16:01.515Z,796
2016-12-01T13:17:11.874Z,792
2016-12-01T13:18:21.683Z,800
2016-12-01T13:19:32.040Z,808
2016-12-01T13:20:42.081Z,828
2016-12-01T13:21:51.798Z,820
2016-12-01T13:23:01.831Z,784
2016-12-01T13:24:11.885Z,748
2016-12-01T13:25:22.247Z,736
2016-12-01T13:26:32.624Z,760
2016-12-01T13:27:42.686Z,776
2016-12-01T13:28:52.735Z,776
2016-12-01T13:30:02.804Z,784
2016-12-01T13:31:12.844Z,756
2016-12-01T13:32:23.202Z,704
2016-12-01T13:33:33.253Z,652
2016-12-01T13:34:43.607Z,600
2016-12-01T13:35:53.628Z,568
2016-12-01T13:37:03.993Z,552
2016-12-01T13:38:14.353Z,544
2016-12-01T13:39:24.384Z,540
2016-12-01T13:40:34.758Z,524
2016-12-01T13:41:45.125Z,520
2016-12-01T13:42:55.537Z,524
2016-12-01T13:44:05.918Z,536
2016-12-01T13:45:15.700Z,520
2016-12-01T13:46:26.085Z,516
2016-12-01T13:47:36.518Z,508
2016-12-01T13:48:46.900Z,512
2016-12-01T13:49:57.266Z,520
2016-12-01T13:51:07.087Z,520
2016-12-01T13:52:17.511Z,512
2016-12-01T13:53:27.556Z,488
2016-12-01T13:54:37.901Z,464
2016-12-01T13:55:47.935Z,444
2016-12-01T13:56:57.986Z,448
2016-12-01T13:58:08.081Z,452
2016-12-01T13:59:18.122Z,480
2016-12-01T14:00:27.860Z,500
2016-12-01T14:01:38.272Z,500
2016-12-01T14:02:48.305Z,456
2016-12-01T14:03:58.679Z,416
2016-12-01T14:05:08.713Z,368
2016-12-01T14:06:19.051Z,328
2016-12-01T14:07:29.092Z,304
2016-12-01T14:08:39.435Z,304
2016-12-01T14:09:49.778Z,312
2016-12-01T14:11:00.142Z,308
2016-12-01T14:12:10.478Z,284
2016-12-01T14:13:20.844Z,276
2016-12-01T14:14:31.190Z,276
2016-12-01T14:15:41.527Z,268
2016-12-01T14:16:51.880Z,260
2016-12-01T14:18:02.218Z,248
2016-12-01T14:19:12.240Z,220
2016-12-01T14:20:22.256Z,212
2016-12-01T14:21:32.592Z,216
2016-12-01T14:22:42.937Z,212
2016-12-01T14:23:53.307Z,200
2016-12-01T14:25:03.681Z,188
2016-12-01T14:26:14.028Z,172
2016-12-01T14:27:24.054Z,160
2016-12-01T14:28:33.785Z,148
2016-12-01T14:29:43.807Z,140
2016-12-01T14:30:54.171Z,128
2016-12-01T14:32:04.196Z,120
2016-12-01T14:33:14.238Z,116
2016-12-01T14:34:24.607Z,108
2016-12-01T14:35:34.628Z,104
2016-12-01T14:36:44.963Z,104
2016-12-01T14:37:54.693Z,100
2016-12-01T14:39:05.056Z,104
2016-12-01T14:40:14.767Z,108
2016-12-01T14:41:24.780Z,108
2016-12-01T14:42:35.123Z,108
2016-12-01T14:43:45.464Z,108
2016-12-01T14:44:55.495Z,100
2016-12-01T14:46:05.528Z,96
2016-12-01T14:47:15.546Z,92
2016-12-01T14:48:25.575Z,88
2016-12-01T14:49:35.926Z,84
2016-12-01T14:50:46.274Z,76
2016-12-01T14:51:56.628Z,72
2016-12-01T14:53:06.684Z,68
2016-12-01T14:54:16.737Z,60
2016-12-01T14:55:26.762Z,52
2016-12-01T14:56:37.117Z,48
2016-12-01T14:57:47.141Z,44
2016-12-01T14:58:57.502Z,40
2016-12-01T15:00:07.869Z,40
2016-12-01T15:01:17.931Z,36
2016-12-01T15:02:27.966Z,32
2016-12-01T15:03:38.326Z,28
2016-12-01T15:04:48.665Z,28
2016-12-01T15:05:58.704Z,24
2016-12-01T15:07:08.707Z,20
2016-12-01T15:08:18.736Z,20
2016-12-01T15:09:29.087Z,16
2016-12-01T15:10:39.428Z,16
2016-12-01T15:11:49.453Z,16
2016-12-01T15:12:59.804Z,12
2016-12-01T15:14:10.169Z,12
2016-12-01T15:15:20.211Z,8
2016-12-01T15:16:30.581Z,8
2016-12-01T15:17:40.599Z,4
2016-12-01T15:18:50.338Z,4
2016-12-01T15:19:59.747Z,8
2016-12-01T15:21:09.772Z,4
2016-12-01T15:22:20.114Z,4
2016-12-01T15:23:30.176Z,4
2016-12-01T15:24:40.517Z,0
2016-12-01T15:25:50.550Z,0
2016-12-01T15:27:00.266Z,4
2016-12-01T15:28:10.278Z,4
2016-12-01T15:29:19.996Z,4
2016-12-01T15:30:30.341Z,4
2016-12-01T15:31:40.683Z,4
2016-12-01T15:32:50.406Z,4
2016-12-01T15:34:00.732Z,0
2016-12-01T15:35:11.078Z,0
2016-12-01T15:36:21.418Z,0
2016-12-01T15:37:31.451Z,0
2016-12-01T15:38:41.477Z,0
2016-12-01T15:39:51.502Z,0
2016-12-01T15:41:01.519Z,0
2016-12-01T15:42:11.553Z,0
2016-12-01T15:43:21.896Z,0
2016-12-01T15:44:32.235Z,0
2016-12-01T15:45:42.575Z,0
2016-12-01T15:46:52.602Z,0
2016-12-01T15:48:02.022Z,0
2016-12-01T15:49:12.385Z,0
2016-12-01T15:50:22.431Z,0
2016-12-01T15:51:32.459Z,0
2016-12-01T15:52:42.494Z,0
2016-12-01T15:53:52.581Z,0
2016-12-01T15:55:02.919Z,0
2016-12-01T15:56:13.244Z,0
2016-12-01T15:57:23.296Z,0
2016-12-01T15:58:33.000Z,0
2016-12-01T15:59:43.360Z,0
2016-12-01T16:00:53.397Z,0
2016-12-01T16:02:03.439Z,0
2016-12-01T16:03:13.778Z,0
2016-12-01T16:04:23.496Z,0
2016-12-01T16:05:33.522Z,0
2016-12-01T16:06:43.534Z,0
2016-12-01T16:07:53.882Z,0
2016-12-01T16:09:03.904Z,0
2016-12-01T16:10:13.931Z,0
2016-12-01T16:11:24.259Z,0
2016-12-01T16:12:34.290Z,0
2016-12-01T16:13:44.310Z,0
2016-12-01T16:14:54.350Z,0
2016-12-01T16:16:04.377Z,0
2016-12-01T16:17:14.705Z,0
2016-12-01T16:18:24.458Z,0
2016-12-01T16:19:34.503Z,0
2016-12-01T16:20:44.255Z,0
2016-12-01T16:21:54.297Z,0
2016-12-01T16:23:04.016Z,0
2016-12-01T16:24:14.042Z,0
2016-12-01T16:25:24.086Z,0
2016-12-01T16:26:34.368Z,0
2016-12-01T16:27:44.219Z,0
2016-12-01T16:28:54.584Z,0
2016-12-01T16:30:04.629Z,0
2016-12-01T16:31:15.023Z,0
2016-12-01T16:32:25.148Z,0
2016-12-01T16:33:35.603Z,0
2016-12-01T16:34:45.633Z,0
2016-12-01T16:35:55.991Z,0
2016-12-01T16:37:06.382Z,0
2016-12-01T16:38:16.474Z,0
2016-12-01T16:39:26.833Z,0
2016-12-01T16:40:37.252Z,0
2016-12-01T16:41:47.638Z,0
2016-12-01T16:42:57.684Z,0
2016-12-01T16:44:08.063Z,0
2016-12-01T16:45:18.450Z,0
2016-12-01T16:46:28.838Z,0
2016-12-01T16:47:39.224Z,0
2016-12-01T16:48:49.586Z,0
2016-12-01T16:49:59.321Z,0
2016-12-01T16:51:09.352Z,0
2016-12-01T16:52:19.070Z,0
2016-12-01T16:53:29.398Z,0
2016-12-01T16:54:39.423Z,0
2016-12-01T16:55:49.454Z,0
2016-12-01T16:56:59.790Z,0
2016-12-01T16:58:09.810Z,0
2016-12-01T16:59:19.854Z,0